sensor_id;sensor_type;location;lat;lon;timestamp;pressure;altitude;pressure_sealevel;temperature;humidity
50550;BME280;36505;52.512;13.460;2023-04-04T00:00:44;102557.81;;;-0.25;71.28
50550;BME280;36505;52.512;13.460;2023-04-04T00:03:10;102558.59;;;-0.34;70.96
50550;BME280;36505;52.512;13.460;2023-04-04T00:05:35;102562.13;;;-0.33;71.21
50550;BME280;36505;52.512;13.460;2023-04-04T00:08:02;102567.16;;;-0.29;70.77
50550;BME280;36505;52.512;13.460;2023-04-04T00:10:27;102565.22;;;-0.38;71.19
50550;BME280;36505;52.512;13.460;2023-04-04T00:12:53;102559.72;;;-0.36;71.36
50550;BME280;36505;52.512;13.460;2023-04-04T00:15:18;102554.84;;;-0.43;71.54
50550;BME280;36505;52.512;13.460;2023-04-04T00:17:44;102542.16;;;-0.52;71.69
50550;BME280;36505;52.512;13.460;2023-04-04T00:20:10;102563.16;;;-0.34;71.54
50550;BME280;36505;52.512;13.460;2023-04-04T00:22:35;102544.59;;;-0.49;71.60
50550;BME280;36505;52.512;13.460;2023-04-04T00:25:01;102561.94;;;-0.42;72.28
50550;BME280;36505;52.512;13.460;2023-04-04T00:27:26;102541.91;;;-0.49;71.95
50550;BME280;36505;52.512;13.460;2023-04-04T00:29:51;102557.44;;;-0.41;71.78
50550;BME280;36505;52.512;13.460;2023-04-04T00:32:17;102560.47;;;-0.46;71.69
50550;BME280;36505;52.512;13.460;2023-04-04T00:34:42;102556.22;;;-0.48;71.93
50550;BME280;36505;52.512;13.460;2023-04-04T00:37:08;102556.34;;;-0.50;72.38
50550;BME280;36505;52.512;13.460;2023-04-04T00:39:36;102570.16;;;-0.54;72.31
50550;BME280;36505;52.512;13.460;2023-04-04T00:42:01;102553.94;;;-0.64;72.40
50550;BME280;36505;52.512;13.460;2023-04-04T00:44:30;102550.75;;;-0.58;72.59
50550;BME280;36505;52.512;13.460;2023-04-04T00:46:56;102555.66;;;-0.63;72.28
50550;BME280;36505;52.512;13.460;2023-04-04T00:49:22;102556.66;;;-0.64;72.67
50550;BME280;36505;52.512;13.460;2023-04-04T00:51:55;102556.34;;;-0.50;72.86
50550;BME280;36505;52.512;13.460;2023-04-04T00:54:23;102556.06;;;-0.47;72.75
50550;BME280;36505;52.512;13.460;2023-04-04T00:56:49;102538.72;;;-0.54;72.74
50550;BME280;36505;52.512;13.460;2023-04-04T00:59:20;102551.94;;;-0.51;72.75
50550;BME280;36505;52.512;13.460;2023-04-04T01:01:46;102553.19;;;-0.55;72.92
50550;BME280;36505;52.512;13.460;2023-04-04T01:04:12;102520.47;;;-0.71;72.95
50550;BME280;36505;52.512;13.460;2023-04-04T01:06:37;102528.53;;;-0.71;73.10
50550;BME280;36505;52.512;13.460;2023-04-04T01:09:03;102536.56;;;-0.60;73.20
50550;BME280;36505;52.512;13.460;2023-04-04T01:11:28;102550.00;;;-0.60;73.17
50550;BME280;36505;52.512;13.460;2023-04-04T01:13:54;102538.31;;;-0.70;73.17
50550;BME280;36505;52.512;13.460;2023-04-04T01:16:20;102537.69;;;-0.62;73.76
50550;BME280;36505;52.512;13.460;2023-04-04T01:18:47;102512.19;;;-0.79;73.53
50550;BME280;36505;52.512;13.460;2023-04-04T01:21:15;102535.38;;;-0.67;73.25
50550;BME280;36505;52.512;13.460;2023-04-04T01:26:12;102540.72;;;-0.56;73.34
50550;BME280;36505;52.512;13.460;2023-04-04T01:28:37;102541.81;;;-0.58;73.05
50550;BME280;36505;52.512;13.460;2023-04-04T01:31:05;102544.28;;;-0.55;73.18
50550;BME280;36505;52.512;13.460;2023-04-04T01:33:36;102523.63;;;-0.66;73.21
50550;BME280;36505;52.512;13.460;2023-04-04T01:36:11;102526.94;;;-0.62;73.46
50550;BME280;36505;52.512;13.460;2023-04-04T01:39:04;102536.19;;;-0.55;73.71
50550;BME280;36505;52.512;13.460;2023-04-04T01:41:34;102528.50;;;-0.60;73.48
50550;BME280;36505;52.512;13.460;2023-04-04T01:44:00;102513.13;;;-0.69;73.28
50550;BME280;36505;52.512;13.460;2023-04-04T01:46:29;102537.28;;;-0.58;73.14
50550;BME280;36505;52.512;13.460;2023-04-04T01:48:55;102531.91;;;-0.58;73.67
50550;BME280;36505;52.512;13.460;2023-04-04T01:51:21;102524.25;;;-0.62;73.01
50550;BME280;36505;52.512;13.460;2023-04-04T01:53:48;102521.66;;;-0.64;73.29
50550;BME280;36505;52.512;13.460;2023-04-04T01:56:13;102522.19;;;-0.70;73.44
50550;BME280;36505;52.512;13.460;2023-04-04T01:58:38;102520.94;;;-0.66;73.34
50550;BME280;36505;52.512;13.460;2023-04-04T02:01:04;102526.06;;;-0.63;73.64
50550;BME280;36505;52.512;13.460;2023-04-04T02:03:29;102515.44;;;-0.64;73.71
50550;BME280;36505;52.512;13.460;2023-04-04T02:05:55;102521.41;;;-0.61;74.04
50550;BME280;36505;52.512;13.460;2023-04-04T02:08:21;102493.91;;;-0.64;73.95
50550;BME280;36505;52.512;13.460;2023-04-04T02:10:46;102488.19;;;-0.71;73.61
50550;BME280;36505;52.512;13.460;2023-04-04T02:13:13;102510.38;;;-0.58;73.51
50550;BME280;36505;52.512;13.460;2023-04-04T02:15:38;102504.16;;;-0.58;73.53
50550;BME280;36505;52.512;13.460;2023-04-04T02:18:04;102503.81;;;-0.65;73.64
50550;BME280;36505;52.512;13.460;2023-04-04T02:20:29;102498.44;;;-0.65;73.82
50550;BME280;36505;52.512;13.460;2023-04-04T02:22:55;102513.19;;;-0.59;73.91
50550;BME280;36505;52.512;13.460;2023-04-04T02:25:21;102501.59;;;-0.60;73.89
50550;BME280;36505;52.512;13.460;2023-04-04T02:27:47;102505.13;;;-0.59;74.09
50550;BME280;36505;52.512;13.460;2023-04-04T02:30:13;102503.09;;;-0.67;74.29
50550;BME280;36505;52.512;13.460;2023-04-04T02:32:38;102481.09;;;-0.72;74.61
50550;BME280;36505;52.512;13.460;2023-04-04T02:35:04;102499.28;;;-0.64;74.51
50550;BME280;36505;52.512;13.460;2023-04-04T02:37:30;102499.81;;;-0.70;74.17
50550;BME280;36505;52.512;13.460;2023-04-04T02:39:55;102481.75;;;-0.80;74.47
50550;BME280;36505;52.512;13.460;2023-04-04T02:42:21;102496.25;;;-0.71;74.46
50550;BME280;36505;52.512;13.460;2023-04-04T02:44:46;102473.44;;;-0.76;74.52
50550;BME280;36505;52.512;13.460;2023-04-04T02:47:11;102489.16;;;-0.72;75.11
50550;BME280;36505;52.512;13.460;2023-04-04T02:49:37;102489.28;;;-0.73;75.31
50550;BME280;36505;52.512;13.460;2023-04-04T02:52:02;102486.59;;;-0.73;75.01
50550;BME280;36505;52.512;13.460;2023-04-04T02:54:28;102479.66;;;-0.76;74.89
50550;BME280;36505;52.512;13.460;2023-04-04T02:56:54;102472.56;;;-0.77;75.22
50550;BME280;36505;52.512;13.460;2023-04-04T02:59:19;102475.38;;;-0.78;75.30
50550;BME280;36505;52.512;13.460;2023-04-04T03:01:45;102471.50;;;-0.86;75.49
50550;BME280;36505;52.512;13.460;2023-04-04T03:04:11;102478.47;;;-0.83;75.74
50550;BME280;36505;52.512;13.460;2023-04-04T03:06:37;102474.06;;;-0.84;75.60
50550;BME280;36505;52.512;13.460;2023-04-04T03:09:03;102480.53;;;-0.87;75.33
50550;BME280;36505;52.512;13.460;2023-04-04T03:11:30;102477.28;;;-0.90;76.04
50550;BME280;36505;52.512;13.460;2023-04-04T03:13:55;102454.91;;;-1.02;75.89
50550;BME280;36505;52.512;13.460;2023-04-04T03:16:21;102472.25;;;-0.95;75.85
50550;BME280;36505;52.512;13.460;2023-04-04T03:18:46;102461.88;;;-0.99;76.16
50550;BME280;36505;52.512;13.460;2023-04-04T03:21:12;102472.41;;;-0.96;76.13
50550;BME280;36505;52.512;13.460;2023-04-04T03:23:38;102459.31;;;-1.01;76.28
50550;BME280;36505;52.512;13.460;2023-04-04T03:26:03;102448.34;;;-1.09;76.36
50550;BME280;36505;52.512;13.460;2023-04-04T03:28:28;102464.47;;;-0.98;76.21
50550;BME280;36505;52.512;13.460;2023-04-04T03:30:54;102440.16;;;-1.07;76.48
50550;BME280;36505;52.512;13.460;2023-04-04T03:33:20;102458.22;;;-0.98;76.54
50550;BME280;36505;52.512;13.460;2023-04-04T03:35:46;102463.13;;;-1.03;76.53
50550;BME280;36505;52.512;13.460;2023-04-04T03:38:11;102427.28;;;-1.25;76.72
50550;BME280;36505;52.512;13.460;2023-04-04T03:40:37;102455.72;;;-1.11;76.81
50550;BME280;36505;52.512;13.460;2023-04-04T03:43:05;102454.97;;;-1.13;76.76
50550;BME280;36505;52.512;13.460;2023-04-04T03:45:33;102449.84;;;-1.16;76.78
50550;BME280;36505;52.512;13.460;2023-04-04T03:48:00;102449.00;;;-1.16;76.94
50550;BME280;36505;52.512;13.460;2023-04-04T03:50:25;102453.53;;;-1.17;77.04
50550;BME280;36505;52.512;13.460;2023-04-04T03:52:51;102449.25;;;-1.20;77.09
50550;BME280;36505;52.512;13.460;2023-04-04T03:55:16;102444.84;;;-1.21;76.99
50550;BME280;36505;52.512;13.460;2023-04-04T03:57:42;102436.19;;;-1.24;77.44
50550;BME280;36505;52.512;13.460;2023-04-04T04:00:07;102421.44;;;-1.30;77.39
50550;BME280;36505;52.512;13.460;2023-04-04T04:02:33;102427.06;;;-1.33;77.44
50550;BME280;36505;52.512;13.460;2023-04-04T04:04:58;102425.97;;;-1.30;77.27
50550;BME280;36505;52.512;13.460;2023-04-04T04:07:23;102416.44;;;-1.34;77.60
50550;BME280;36505;52.512;13.460;2023-04-04T04:09:49;102412.53;;;-1.41;77.88
50550;BME280;36505;52.512;13.460;2023-04-04T04:12:15;102397.66;;;-1.56;77.52
50550;BME280;36505;52.512;13.460;2023-04-04T04:14:40;102432.19;;;-1.41;77.63
50550;BME280;36505;52.512;13.460;2023-04-04T04:17:06;102419.78;;;-1.53;77.32
50550;BME280;36505;52.512;13.460;2023-04-04T04:19:32;102442.94;;;-1.41;77.77
50550;BME280;36505;52.512;13.460;2023-04-04T04:21:57;102440.38;;;-1.42;77.58
50550;BME280;36505;52.512;13.460;2023-04-04T04:24:22;102437.44;;;-1.39;78.02
50550;BME280;36505;52.512;13.460;2023-04-04T04:26:48;102437.44;;;-1.39;77.72
50550;BME280;36505;52.512;13.460;2023-04-04T04:29:13;102438.44;;;-1.40;77.51
50550;BME280;36505;52.512;13.460;2023-04-04T04:31:39;102440.25;;;-1.41;77.71
50550;BME280;36505;52.512;13.460;2023-04-04T04:34:05;102443.06;;;-1.42;77.53
50550;BME280;36505;52.512;13.460;2023-04-04T04:36:33;102440.13;;;-1.39;77.59
50550;BME280;36505;52.512;13.460;2023-04-04T04:39:00;102443.56;;;-1.37;77.67
50550;BME280;36505;52.512;13.460;2023-04-04T04:41:25;102431.34;;;-1.41;77.61
50550;BME280;36505;52.512;13.460;2023-04-04T04:43:51;102443.41;;;-1.36;77.69
50550;BME280;36505;52.512;13.460;2023-04-04T04:46:17;102444.16;;;-1.34;77.95
50550;BME280;36505;52.512;13.460;2023-04-04T04:48:42;102449.41;;;-1.32;77.86
50550;BME280;36505;52.512;13.460;2023-04-04T04:51:07;102427.94;;;-1.43;77.35
50550;BME280;36505;52.512;13.460;2023-04-04T04:53:33;102423.41;;;-1.43;77.79
50550;BME280;36505;52.512;13.460;2023-04-04T04:55:58;102449.03;;;-1.28;77.50
50550;BME280;36505;52.512;13.460;2023-04-04T04:58:24;102447.03;;;-1.14;77.23
50550;BME280;36505;52.512;13.460;2023-04-04T05:00:53;102440.47;;;-0.90;77.07
50550;BME280;36505;52.512;13.460;2023-04-04T05:03:19;102446.00;;;-0.70;76.14
50550;BME280;36505;52.512;13.460;2023-04-04T05:05:44;102425.91;;;-0.66;75.40
50550;BME280;36505;52.512;13.460;2023-04-04T05:08:11;102434.59;;;-0.42;74.96
50550;BME280;36505;52.512;13.460;2023-04-04T05:10:36;102447.25;;;0.18;73.43
50550;BME280;36505;52.512;13.460;2023-04-04T05:13:01;102441.91;;;0.87;71.57
50550;BME280;36505;52.512;13.460;2023-04-04T05:15:28;102447.13;;;1.66;68.89
50550;BME280;36505;52.512;13.460;2023-04-04T05:17:53;102463.84;;;2.35;65.86
50550;BME280;36505;52.512;13.460;2023-04-04T05:20:19;102459.09;;;2.47;64.27
50550;BME280;36505;52.512;13.460;2023-04-04T05:22:45;102458.50;;;2.98;63.73
50550;BME280;36505;52.512;13.460;2023-04-04T05:25:11;102462.00;;;3.87;60.56
50550;BME280;36505;52.512;13.460;2023-04-04T05:27:38;102463.69;;;4.14;59.09
50550;BME280;36505;52.512;13.460;2023-04-04T05:30:04;102442.25;;;4.28;57.59
50550;BME280;36505;52.512;13.460;2023-04-04T05:32:30;102466.22;;;4.83;56.07
50550;BME280;36505;52.512;13.460;2023-04-04T05:34:55;102479.22;;;5.62;53.55
50550;BME280;36505;52.512;13.460;2023-04-04T05:37:21;102449.97;;;6.60;50.80
50550;BME280;36505;52.512;13.460;2023-04-04T05:39:46;102460.81;;;7.30;49.47
50550;BME280;36505;52.512;13.460;2023-04-04T05:42:12;102463.09;;;7.64;48.23
50550;BME280;36505;52.512;13.460;2023-04-04T05:44:37;102455.78;;;7.64;47.55
50550;BME280;36505;52.512;13.460;2023-04-04T05:47:03;102458.03;;;8.27;46.05
50550;BME280;36505;52.512;13.460;2023-04-04T05:49:28;102463.41;;;8.80;44.24
50550;BME280;36505;52.512;13.460;2023-04-04T05:51:53;102445.28;;;8.93;43.65
50550;BME280;36505;52.512;13.460;2023-04-04T05:54:22;102451.53;;;9.08;43.38
50550;BME280;36505;52.512;13.460;2023-04-04T05:56:47;102455.34;;;9.07;44.15
50550;BME280;36505;52.512;13.460;2023-04-04T05:59:13;102459.19;;;9.13;43.17
50550;BME280;36505;52.512;13.460;2023-04-04T06:01:38;102455.63;;;8.98;43.28
50550;BME280;36505;52.512;13.460;2023-04-04T06:04:05;102458.09;;;8.93;43.60
50550;BME280;36505;52.512;13.460;2023-04-04T06:06:31;102453.91;;;9.11;42.97
50550;BME280;36505;52.512;13.460;2023-04-04T06:08:57;102447.06;;;9.43;43.30
50550;BME280;36505;52.512;13.460;2023-04-04T06:11:22;102459.16;;;10.05;41.46
50550;BME280;36505;52.512;13.460;2023-04-04T06:13:48;102467.47;;;10.46;39.96
50550;BME280;36505;52.512;13.460;2023-04-04T06:16:14;102460.16;;;11.07;38.87
50550;BME280;36505;52.512;13.460;2023-04-04T06:18:39;102466.22;;;11.76;36.98
50550;BME280;36505;52.512;13.460;2023-04-04T06:21:05;102449.31;;;12.12;36.19
50550;BME280;36505;52.512;13.460;2023-04-04T06:23:30;102466.53;;;12.65;35.41
50550;BME280;36505;52.512;13.460;2023-04-04T06:25:56;102464.97;;;13.34;33.90
50550;BME280;36505;52.512;13.460;2023-04-04T06:28:21;102464.34;;;13.63;33.89
50550;BME280;36505;52.512;13.460;2023-04-04T06:30:46;102451.72;;;14.05;33.14
50550;BME280;36505;52.512;13.460;2023-04-04T06:33:12;102452.63;;;14.79;31.90
50550;BME280;36505;52.512;13.460;2023-04-04T06:35:37;102450.06;;;15.14;31.08
50550;BME280;36505;52.512;13.460;2023-04-04T06:38:03;102437.13;;;14.96;31.31
50550;BME280;36505;52.512;13.460;2023-04-04T06:40:29;102462.03;;;15.49;30.21
50550;BME280;36505;52.512;13.460;2023-04-04T06:42:55;102444.19;;;15.52;30.25
50550;BME280;36505;52.512;13.460;2023-04-04T06:45:23;102466.38;;;15.75;30.09
50550;BME280;36505;52.512;13.460;2023-04-04T06:47:49;102464.59;;;16.62;29.02
50550;BME280;36505;52.512;13.460;2023-04-04T06:50:16;102462.19;;;16.77;29.07
50550;BME280;36505;52.512;13.460;2023-04-04T06:52:48;102451.94;;;17.18;27.63
50550;BME280;36505;52.512;13.460;2023-04-04T06:55:14;102456.50;;;17.41;27.40
50550;BME280;36505;52.512;13.460;2023-04-04T06:57:39;102456.84;;;17.44;27.42
50550;BME280;36505;52.512;13.460;2023-04-04T07:00:07;102452.31;;;18.00;26.37
50550;BME280;36505;52.512;13.460;2023-04-04T07:02:34;102441.94;;;17.45;26.92
50550;BME280;36505;52.512;13.460;2023-04-04T07:04:59;102446.16;;;17.81;26.98
50550;BME280;36505;52.512;13.460;2023-04-04T07:07:25;102456.06;;;18.27;26.10
50550;BME280;36505;52.512;13.460;2023-04-04T07:09:50;102444.94;;;18.44;25.88
50550;BME280;36505;52.512;13.460;2023-04-04T07:12:16;102446.09;;;18.65;25.56
50550;BME280;36505;52.512;13.460;2023-04-04T07:14:41;102449.72;;;17.48;26.41
50550;BME280;36505;52.512;13.460;2023-04-04T07:17:07;102442.63;;;17.52;27.05
50550;BME280;36505;52.512;13.460;2023-04-04T07:19:32;102424.78;;;18.48;25.44
50550;BME280;36505;52.512;13.460;2023-04-04T07:21:57;102437.19;;;18.63;24.95
50550;BME280;36505;52.512;13.460;2023-04-04T07:24:23;102432.06;;;17.83;25.84
50550;BME280;36505;52.512;13.460;2023-04-04T07:26:48;102431.19;;;18.15;25.59
50550;BME280;36505;52.512;13.460;2023-04-04T07:29:13;102418.28;;;18.81;24.77
50550;BME280;36505;52.512;13.460;2023-04-04T07:31:39;102425.59;;;19.14;24.37
50550;BME280;36505;52.512;13.460;2023-04-04T07:34:04;102428.75;;;18.74;24.70
50550;BME280;36505;52.512;13.460;2023-04-04T07:36:30;102423.81;;;18.21;25.29
50550;BME280;36505;52.512;13.460;2023-04-04T07:38:56;102423.22;;;19.01;24.98
50550;BME280;36505;52.512;13.460;2023-04-04T07:41:22;102404.63;;;19.50;24.58
50550;BME280;36505;52.512;13.460;2023-04-04T07:43:48;102417.56;;;20.08;23.57
50550;BME280;36505;52.512;13.460;2023-04-04T07:46:13;102406.84;;;19.26;23.58
50550;BME280;36505;52.512;13.460;2023-04-04T07:48:39;102417.22;;;19.09;23.63
50550;BME280;36505;52.512;13.460;2023-04-04T07:51:04;102426.41;;;18.28;24.44
50550;BME280;36505;52.512;13.460;2023-04-04T07:53:30;102413.03;;;18.41;24.28
50550;BME280;36505;52.512;13.460;2023-04-04T07:55:56;102414.47;;;19.41;24.38
50550;BME280;36505;52.512;13.460;2023-04-04T07:58:21;102402.84;;;19.71;23.21
50550;BME280;36505;52.512;13.460;2023-04-04T08:00:46;102420.81;;;20.32;23.48
50550;BME280;36505;52.512;13.460;2023-04-04T08:03:12;102416.06;;;20.80;23.34
50550;BME280;36505;52.512;13.460;2023-04-04T08:05:38;102404.38;;;20.88;22.10
50550;BME280;36505;52.512;13.460;2023-04-04T08:08:03;102407.28;;;21.18;22.57
50550;BME280;36505;52.512;13.460;2023-04-04T08:10:29;102407.78;;;21.15;20.95
50550;BME280;36505;52.512;13.460;2023-04-04T08:12:54;102413.41;;;21.31;20.16
50550;BME280;36505;52.512;13.460;2023-04-04T08:15:19;102406.72;;;19.70;22.30
50550;BME280;36505;52.512;13.460;2023-04-04T08:17:45;102390.84;;;19.12;22.46
50550;BME280;36505;52.512;13.460;2023-04-04T08:20:11;102369.53;;;19.44;21.52
50550;BME280;36505;52.512;13.460;2023-04-04T08:22:38;102406.22;;;20.62;21.29
50550;BME280;36505;52.512;13.460;2023-04-04T08:25:04;102411.94;;;20.40;20.97
50550;BME280;36505;52.512;13.460;2023-04-04T08:27:30;102398.00;;;19.03;22.73
50550;BME280;36505;52.512;13.460;2023-04-04T08:29:55;102401.44;;;20.05;21.07
50550;BME280;36505;52.512;13.460;2023-04-04T08:32:21;102389.88;;;18.96;23.03
50550;BME280;36505;52.512;13.460;2023-04-04T08:34:47;102400.84;;;19.40;21.60
50550;BME280;36505;52.512;13.460;2023-04-04T08:37:12;102398.16;;;19.45;22.12
50550;BME280;36505;52.512;13.460;2023-04-04T08:39:38;102399.78;;;19.46;22.32
50550;BME280;36505;52.512;13.460;2023-04-04T08:42:05;102390.94;;;20.18;22.14
50550;BME280;36505;52.512;13.460;2023-04-04T08:44:32;102399.34;;;20.28;21.68
50550;BME280;36505;52.512;13.460;2023-04-04T08:46:59;102396.16;;;21.34;19.95
50550;BME280;36505;52.512;13.460;2023-04-04T08:49:28;102393.22;;;20.88;20.09
50550;BME280;36505;52.512;13.460;2023-04-04T08:51:56;102393.78;;;20.85;20.10
50550;BME280;36505;52.512;13.460;2023-04-04T08:54:24;102385.34;;;20.60;20.03
50550;BME280;36505;52.512;13.460;2023-04-04T08:56:52;102389.47;;;20.47;20.20
50550;BME280;36505;52.512;13.460;2023-04-04T08:59:18;102392.78;;;20.39;20.63
50550;BME280;36505;52.512;13.460;2023-04-04T09:01:45;102370.47;;;19.55;21.60
50550;BME280;36505;52.512;13.460;2023-04-04T09:04:10;102385.41;;;20.28;21.79
50550;BME280;36505;52.512;13.460;2023-04-04T09:06:36;102373.03;;;21.33;20.58
50550;BME280;36505;52.512;13.460;2023-04-04T09:09:02;102355.75;;;21.77;20.38
50550;BME280;36505;52.512;13.460;2023-04-04T09:11:30;102356.59;;;21.62;20.80
50550;BME280;36505;52.512;13.460;2023-04-04T09:13:56;102372.34;;;22.42;19.72
50550;BME280;36505;52.512;13.460;2023-04-04T09:16:22;102380.16;;;22.40;18.76
50550;BME280;36505;52.512;13.460;2023-04-04T09:18:48;102364.31;;;22.26;17.92
50550;BME280;36505;52.512;13.460;2023-04-04T09:21:14;102361.72;;;19.41;20.24
50550;BME280;36505;52.512;13.460;2023-04-04T09:23:39;102377.78;;;18.20;21.89
50550;BME280;36505;52.512;13.460;2023-04-04T09:26:05;102363.34;;;17.18;23.05
50550;BME280;36505;52.512;13.460;2023-04-04T09:28:31;102366.09;;;17.63;23.89
50550;BME280;36505;52.512;13.460;2023-04-04T09:31:00;102372.69;;;17.00;24.70
50550;BME280;36505;52.512;13.460;2023-04-04T09:33:26;102368.47;;;16.17;25.74
50550;BME280;36505;52.512;13.460;2023-04-04T09:36:01;102362.50;;;17.17;24.34
50550;BME280;36505;52.512;13.460;2023-04-04T09:38:28;102368.41;;;16.64;23.93
50550;BME280;36505;52.512;13.460;2023-04-04T09:40:55;102367.63;;;15.17;26.14
50550;BME280;36505;52.512;13.460;2023-04-04T09:43:22;102374.66;;;14.35;27.58
50550;BME280;36505;52.512;13.460;2023-04-04T09:45:48;102387.03;;;13.90;28.55
50550;BME280;36505;52.512;13.460;2023-04-04T09:48:33;102370.56;;;13.58;28.79
50550;BME280;36505;52.512;13.460;2023-04-04T09:51:05;102379.88;;;13.32;29.26
50550;BME280;36505;52.512;13.460;2023-04-04T09:53:33;102374.50;;;12.81;29.92
50550;BME280;36505;52.512;13.460;2023-04-04T09:56:00;102369.06;;;12.10;30.34
50550;BME280;36505;52.512;13.460;2023-04-04T09:58:28;102370.81;;;11.85;30.59
50550;BME280;36505;52.512;13.460;2023-04-04T10:00:55;102372.91;;;11.57;31.41
50550;BME280;36505;52.512;13.460;2023-04-04T10:03:23;102367.22;;;11.38;31.59
50550;BME280;36505;52.512;13.460;2023-04-04T10:06:01;102369.13;;;11.44;31.12
50550;BME280;36505;52.512;13.460;2023-04-04T10:08:28;102369.03;;;10.92;31.91
50550;BME280;36505;52.512;13.460;2023-04-04T10:10:58;102366.78;;;11.55;31.37
50550;BME280;36505;52.512;13.460;2023-04-04T10:13:29;102360.03;;;11.90;31.40
50550;BME280;36505;52.512;13.460;2023-04-04T10:15:56;102339.50;;;12.06;30.03
50550;BME280;36505;52.512;13.460;2023-04-04T10:18:26;102361.50;;;11.99;29.99
50550;BME280;36505;52.512;13.460;2023-04-04T10:20:53;102354.34;;;11.65;30.06
50550;BME280;36505;52.512;13.460;2023-04-04T10:23:20;102355.59;;;11.76;29.71
50550;BME280;36505;52.512;13.460;2023-04-04T10:25:48;102334.22;;;12.04;29.24
50550;BME280;36505;52.512;13.460;2023-04-04T10:28:14;102350.97;;;11.83;28.83
50550;BME280;36505;52.512;13.460;2023-04-04T10:30:41;102352.63;;;11.97;28.48
50550;BME280;36505;52.512;13.460;2023-04-04T10:33:09;102339.13;;;11.69;28.86
50550;BME280;36505;52.512;13.460;2023-04-04T10:35:43;102341.66;;;11.71;29.39
50550;BME280;36505;52.512;13.460;2023-04-04T10:38:12;102355.81;;;11.28;29.66
50550;BME280;36505;52.512;13.460;2023-04-04T10:40:38;102338.28;;;11.03;30.36
50550;BME280;36505;52.512;13.460;2023-04-04T10:43:09;102344.78;;;10.89;30.47
50550;BME280;36505;52.512;13.460;2023-04-04T10:45:39;102352.22;;;10.41;30.32
50550;BME280;36505;52.512;13.460;2023-04-04T10:48:07;102339.78;;;10.04;31.54
50550;BME280;36505;52.512;13.460;2023-04-04T10:50:34;102322.06;;;10.27;30.90
50550;BME280;36505;52.512;13.460;2023-04-04T10:53:00;102335.78;;;10.41;31.35
50550;BME280;36505;52.512;13.460;2023-04-04T10:55:28;102335.13;;;10.32;31.48
50550;BME280;36505;52.512;13.460;2023-04-04T10:57:54;102328.41;;;10.35;31.11
50550;BME280;36505;52.512;13.460;2023-04-04T11:00:21;102319.94;;;10.23;31.03
50550;BME280;36505;52.512;13.460;2023-04-04T11:02:59;102326.34;;;10.02;31.66
50550;BME280;36505;52.512;13.460;2023-04-04T11:05:35;102320.78;;;9.89;31.13
50550;BME280;36505;52.512;13.460;2023-04-04T11:08:21;102326.81;;;9.78;31.09
50550;BME280;36505;52.512;13.460;2023-04-04T11:10:50;102300.25;;;9.72;31.14
50550;BME280;36505;52.512;13.460;2023-04-04T11:16:03;102307.47;;;9.24;31.96
50550;BME280;36505;52.512;13.460;2023-04-04T11:21:00;102307.94;;;9.27;31.91
50550;BME280;36505;52.512;13.460;2023-04-04T11:23:26;102294.28;;;9.27;32.21
50550;BME280;36505;52.512;13.460;2023-04-04T11:25:55;102306.78;;;9.43;31.81
50550;BME280;36505;52.512;13.460;2023-04-04T11:39:08;102283.97;;;8.59;32.50
50550;BME280;36505;52.512;13.460;2023-04-04T11:44:14;102287.34;;;9.03;31.66
50550;BME280;36505;52.512;13.460;2023-04-04T11:46:40;102283.44;;;8.91;31.80
50550;BME280;36505;52.512;13.460;2023-04-04T11:49:06;102272.78;;;8.75;32.50
50550;BME280;36505;52.512;13.460;2023-04-04T11:51:32;102279.13;;;8.61;32.93
50550;BME280;36505;52.512;13.460;2023-04-04T11:53:57;102262.91;;;8.53;32.42
50550;BME280;36505;52.512;13.460;2023-04-04T11:56:25;102265.34;;;8.48;32.99
50550;BME280;36505;52.512;13.460;2023-04-04T11:58:50;102260.22;;;8.23;32.38
50550;BME280;36505;52.512;13.460;2023-04-04T12:01:17;102260.59;;;8.20;31.46
50550;BME280;36505;52.512;13.460;2023-04-04T12:03:43;102252.94;;;8.09;31.56
50550;BME280;36505;52.512;13.460;2023-04-04T12:06:10;102253.09;;;8.08;32.04
50550;BME280;36505;52.512;13.460;2023-04-04T12:08:36;102238.16;;;8.04;32.67
50550;BME280;36505;52.512;13.460;2023-04-04T12:11:06;102241.97;;;8.24;34.04
50550;BME280;36505;52.512;13.460;2023-04-04T12:13:41;102244.94;;;8.44;34.42
50550;BME280;36505;52.512;13.460;2023-04-04T12:16:09;102233.31;;;8.56;31.63
50550;BME280;36505;52.512;13.460;2023-04-04T12:18:36;102212.06;;;8.30;32.56
50550;BME280;36505;52.512;13.460;2023-04-04T12:21:02;102241.63;;;8.48;33.54
50550;BME280;36505;52.512;13.460;2023-04-04T12:23:33;102235.91;;;8.64;33.82
50550;BME280;36505;52.512;13.460;2023-04-04T12:25:58;102234.94;;;8.72;33.83
50550;BME280;36505;52.512;13.460;2023-04-04T12:28:26;102237.41;;;8.67;34.25
50550;BME280;36505;52.512;13.460;2023-04-04T12:30:52;102227.38;;;8.74;34.42
50550;BME280;36505;52.512;13.460;2023-04-04T12:33:17;102234.88;;;8.87;33.95
50550;BME280;36505;52.512;13.460;2023-04-04T12:35:51;102227.06;;;8.84;33.13
50550;BME280;36505;52.512;13.460;2023-04-04T12:38:17;102214.66;;;8.60;33.34
50550;BME280;36505;52.512;13.460;2023-04-04T12:40:43;102214.94;;;8.65;33.42
50550;BME280;36505;52.512;13.460;2023-04-04T12:43:15;102210.94;;;8.67;33.07
50550;BME280;36505;52.512;13.460;2023-04-04T12:45:42;102214.94;;;8.65;32.86
50550;BME280;36505;52.512;13.460;2023-04-04T12:48:13;102199.66;;;8.49;33.27
50550;BME280;36505;52.512;13.460;2023-04-04T12:50:58;102214.09;;;8.64;33.89
50550;BME280;36505;52.512;13.460;2023-04-04T12:53:27;102187.28;;;8.53;32.31
50550;BME280;36505;52.512;13.460;2023-04-04T12:55:54;102203.34;;;8.42;33.00
50550;BME280;36505;52.512;13.460;2023-04-04T12:58:22;102198.47;;;8.37;32.97
50550;BME280;36505;52.512;13.460;2023-04-04T13:00:53;102187.75;;;8.36;33.32